createdAt,value
2018-07-31T00:01:41.931Z,7.83
2018-07-31T00:04:11.289Z,7.83
2018-07-31T00:06:40.831Z,7.20
2018-07-31T00:09:10.182Z,7.57
2018-07-31T00:11:39.578Z,7.27
2018-07-31T00:14:08.952Z,8.07
2018-07-31T00:16:38.342Z,6.90
2018-07-31T00:19:07.702Z,8.30
2018-07-31T00:21:37.068Z,8.03
2018-07-31T00:24:06.399Z,8.10
2018-07-31T00:26:35.771Z,7.97
2018-07-31T00:29:05.141Z,8.43
2018-07-31T00:31:34.536Z,8.60
2018-07-31T00:34:03.916Z,8.03
2018-07-31T00:36:33.339Z,9.40
2018-07-31T00:39:02.701Z,7.90
2018-07-31T00:41:32.100Z,8.30
2018-07-31T00:44:01.432Z,8.50
2018-07-31T00:46:30.808Z,7.63
2018-07-31T00:49:00.124Z,8.80
2018-07-31T00:51:29.524Z,8.23
2018-07-31T00:53:58.856Z,8.37
2018-07-31T00:56:28.246Z,8.33
2018-07-31T00:58:57.596Z,12.67
2018-07-31T01:01:27.005Z,9.77
2018-07-31T01:03:56.081Z,9.20
2018-07-31T01:06:28.579Z,8.17
2018-07-31T01:08:57.900Z,8.70
2018-07-31T01:11:27.220Z,8.80
2018-07-31T01:13:56.579Z,9.00
2018-07-31T01:16:25.524Z,8.87
2018-07-31T01:18:54.822Z,8.80
2018-07-31T01:21:24.147Z,9.43
2018-07-31T01:23:53.492Z,8.87
2018-07-31T01:26:22.800Z,8.73
2018-07-31T01:28:52.139Z,8.40
2018-07-31T01:31:21.562Z,8.43
2018-07-31T01:33:50.895Z,9.97
2018-07-31T01:36:20.231Z,8.70
2018-07-31T01:38:49.678Z,9.10
2018-07-31T01:41:19.152Z,8.47
2018-07-31T01:43:48.479Z,9.13
2018-07-31T01:46:17.774Z,8.97
2018-07-31T01:48:47.141Z,9.57
2018-07-31T01:51:16.491Z,9.43
2018-07-31T01:53:45.812Z,9.97
2018-07-31T01:56:15.275Z,9.00
2018-07-31T01:58:44.644Z,8.90
2018-07-31T02:01:13.976Z,9.10
2018-07-31T02:03:43.314Z,9.77
2018-07-31T02:06:12.642Z,9.10
2018-07-31T02:08:41.737Z,8.53
2018-07-31T02:11:10.996Z,9.30
2018-07-31T02:13:40.336Z,9.40
2018-07-31T02:16:09.660Z,8.63
2018-07-31T02:18:38.691Z,9.60
2018-07-31T02:21:07.929Z,9.33
2018-07-31T02:23:37.277Z,9.40
2018-07-31T02:26:06.631Z,9.63
2018-07-31T02:28:35.990Z,10.00
2018-07-31T02:31:05.548Z,9.90
2018-07-31T02:33:34.876Z,10.23
2018-07-31T02:36:04.219Z,10.23
2018-07-31T02:38:33.625Z,11.70
2018-07-31T02:41:02.973Z,11.67
2018-07-31T02:43:32.341Z,12.23
2018-07-31T02:46:01.692Z,11.77
2018-07-31T02:48:31.008Z,10.90
2018-07-31T02:51:00.384Z,12.43
2018-07-31T02:53:29.339Z,12.00
2018-07-31T02:55:58.760Z,12.23
2018-07-31T02:58:27.715Z,12.37
2018-07-31T03:00:56.942Z,12.80
2018-07-31T03:03:26.309Z,13.57
2018-07-31T03:05:55.673Z,12.53
2018-07-31T03:08:25.005Z,11.93
2018-07-31T03:10:54.439Z,13.07
2018-07-31T03:13:23.780Z,11.17
2018-07-31T03:15:53.199Z,12.47
2018-07-31T03:18:22.540Z,11.63
2018-07-31T03:20:51.917Z,11.77
2018-07-31T03:23:21.283Z,11.60
2018-07-31T03:25:50.640Z,11.80
2018-07-31T03:28:20.070Z,11.23
2018-07-31T03:30:49.006Z,12.80
2018-07-31T03:33:18.301Z,11.10
2018-07-31T03:35:47.655Z,11.30
2018-07-31T03:38:17.034Z,10.90
2018-07-31T03:40:46.109Z,10.63
2018-07-31T03:43:15.407Z,11.10
2018-07-31T03:45:44.948Z,10.83
2018-07-31T03:48:14.376Z,10.63
2018-07-31T03:50:43.727Z,11.40
2018-07-31T03:53:13.099Z,11.00
2018-07-31T03:55:42.913Z,10.97
2018-07-31T03:58:12.248Z,12.90
2018-07-31T04:00:41.571Z,11.10
2018-07-31T04:03:10.942Z,10.67
2018-07-31T04:05:40.270Z,10.53
2018-07-31T04:08:09.613Z,10.73
2018-07-31T04:10:38.944Z,11.00
2018-07-31T04:13:07.943Z,10.87
2018-07-31T04:15:37.323Z,11.07
2018-07-31T04:18:06.326Z,10.80
2018-07-31T04:20:35.358Z,10.80
2018-07-31T04:23:04.659Z,11.00
2018-07-31T04:25:33.930Z,11.40
2018-07-31T04:28:03.148Z,11.27
2018-07-31T04:30:32.514Z,11.10
2018-07-31T04:33:01.798Z,11.17
2018-07-31T04:35:31.194Z,12.17
2018-07-31T04:38:00.512Z,11.63
2018-07-31T04:40:29.892Z,11.60
2018-07-31T04:42:59.180Z,11.50
2018-07-31T04:45:28.543Z,11.63
2018-07-31T04:47:57.865Z,11.50
2018-07-31T04:50:27.284Z,11.43
2018-07-31T04:52:56.579Z,11.80
2018-07-31T04:55:25.933Z,12.27
2018-07-31T04:57:55.226Z,11.77
2018-07-31T05:00:24.627Z,11.13
2018-07-31T05:02:53.943Z,11.80
2018-07-31T05:05:22.909Z,11.60
2018-07-31T05:07:51.779Z,10.93
2018-07-31T05:10:21.011Z,12.10
2018-07-31T05:12:50.004Z,11.60
2018-07-31T05:15:19.323Z,12.03
2018-07-31T05:17:48.669Z,12.33
2018-07-31T05:20:18.007Z,11.10
2018-07-31T05:22:47.353Z,12.30
2018-07-31T05:25:19.670Z,12.13
2018-07-31T05:27:49.124Z,11.80
2018-07-31T05:30:18.452Z,11.50
2018-07-31T05:32:47.857Z,11.00
2018-07-31T05:35:17.176Z,12.03
2018-07-31T05:37:46.578Z,12.27
2018-07-31T05:40:16.251Z,12.33
2018-07-31T05:42:45.620Z,13.10
2018-07-31T05:45:14.956Z,12.30
2018-07-31T05:47:44.342Z,11.53
2018-07-31T05:50:13.702Z,13.77
2018-07-31T05:52:43.083Z,11.17
2018-07-31T05:55:12.087Z,11.00
2018-07-31T05:57:41.384Z,11.23
2018-07-31T06:00:10.716Z,12.30
2018-07-31T06:02:40.128Z,12.80
2018-07-31T06:05:09.435Z,13.57
2018-07-31T06:07:38.791Z,12.37
2018-07-31T06:10:09.421Z,12.43
2018-07-31T06:12:38.919Z,12.60
2018-07-31T06:15:08.312Z,12.30
2018-07-31T06:17:37.651Z,12.77
2018-07-31T06:20:11.595Z,14.37
2018-07-31T06:22:40.964Z,12.10
2018-07-31T06:25:10.292Z,12.73
2018-07-31T06:27:39.689Z,14.00
2018-07-31T06:30:11.254Z,14.83
2018-07-31T06:32:40.995Z,13.00
2018-07-31T06:35:10.702Z,13.13
2018-07-31T06:37:40.363Z,13.20
2018-07-31T06:40:10.206Z,13.53
2018-07-31T06:42:39.560Z,14.77
2018-07-31T06:45:08.911Z,14.30
2018-07-31T06:47:38.243Z,13.60
2018-07-31T06:50:07.634Z,13.03
2018-07-31T06:52:37.000Z,14.53
2018-07-31T06:55:06.330Z,14.47
2018-07-31T06:57:35.664Z,14.10
2018-07-31T07:00:05.923Z,12.73
2018-07-31T07:02:35.239Z,13.97
2018-07-31T07:05:04.607Z,16.03
2018-07-31T07:07:33.925Z,13.67
2018-07-31T07:10:03.255Z,13.63
2018-07-31T07:12:32.612Z,13.40
2018-07-31T07:15:01.949Z,13.97
2018-07-31T07:17:31.287Z,14.77
2018-07-31T07:20:00.624Z,13.40
2018-07-31T07:22:29.997Z,12.87
2018-07-31T07:24:59.331Z,12.53
2018-07-31T07:27:28.663Z,12.10
2018-07-31T07:29:58.007Z,12.37
2018-07-31T07:32:27.344Z,11.77
2018-07-31T07:34:56.692Z,9.43
2018-07-31T07:37:26.027Z,8.97
2018-07-31T07:39:55.864Z,9.23
2018-07-31T07:42:25.195Z,9.00
2018-07-31T07:44:54.476Z,8.60
2018-07-31T07:47:23.828Z,8.10
2018-07-31T07:49:53.142Z,9.27
2018-07-31T07:52:22.483Z,8.43
2018-07-31T07:54:52.242Z,8.20
2018-07-31T07:57:21.598Z,8.00
2018-07-31T07:59:50.911Z,8.70
2018-07-31T08:02:20.244Z,8.10
2018-07-31T08:04:49.585Z,8.77
2018-07-31T08:07:18.928Z,8.03
2018-07-31T08:09:48.254Z,7.50
2018-07-31T08:12:17.645Z,8.27
2018-07-31T08:14:46.982Z,8.83
2018-07-31T08:17:16.340Z,8.97
2018-07-31T08:19:45.658Z,8.73
2018-07-31T08:22:15.032Z,7.60
2018-07-31T08:24:44.362Z,8.10
2018-07-31T08:27:13.694Z,7.90
2018-07-31T08:29:42.994Z,7.70
2018-07-31T08:32:11.980Z,7.57
2018-07-31T08:34:41.248Z,7.57
2018-07-31T08:37:10.604Z,7.47
2018-07-31T08:39:39.920Z,7.80
2018-07-31T08:42:09.305Z,7.77
2018-07-31T08:44:38.727Z,7.50
2018-07-31T08:47:08.107Z,6.90
2018-07-31T08:49:37.421Z,5.27
2018-07-31T08:52:06.743Z,5.97
2018-07-31T08:54:36.117Z,7.37
2018-07-31T08:57:05.429Z,7.20
2018-07-31T08:59:34.789Z,6.73
2018-07-31T09:02:04.116Z,5.70
2018-07-31T09:04:33.463Z,6.00
2018-07-31T09:07:02.782Z,6.77
2018-07-31T09:09:32.186Z,6.27
2018-07-31T09:12:01.509Z,7.10
2018-07-31T09:14:30.855Z,5.40
2018-07-31T09:17:00.171Z,6.07
2018-07-31T09:19:29.481Z,7.10
2018-07-31T09:21:58.792Z,8.00
2018-07-31T09:24:28.189Z,6.67
2018-07-31T09:26:57.449Z,8.57
2018-07-31T09:29:26.792Z,8.20
2018-07-31T09:31:55.750Z,7.40
2018-07-31T09:34:24.980Z,7.80
2018-07-31T09:36:54.292Z,6.97
2018-07-31T09:39:23.246Z,6.97
2018-07-31T09:41:52.432Z,7.83
2018-07-31T09:44:24.609Z,7.07
2018-07-31T09:46:53.947Z,7.47
2018-07-31T09:49:23.308Z,7.13
2018-07-31T09:51:52.624Z,6.10
2018-07-31T09:54:21.928Z,6.93
2018-07-31T09:56:51.281Z,6.80
2018-07-31T09:59:20.571Z,7.37
2018-07-31T10:01:49.890Z,6.77
2018-07-31T10:04:19.188Z,6.37
2018-07-31T10:06:48.528Z,6.30
2018-07-31T10:09:17.840Z,6.33
2018-07-31T10:11:47.249Z,7.47
2018-07-31T10:14:16.528Z,6.70
2018-07-31T10:16:45.869Z,5.90
2018-07-31T10:19:15.195Z,6.43
2018-07-31T10:21:44.501Z,6.40
2018-07-31T10:24:13.838Z,7.30
2018-07-31T10:26:43.148Z,5.97
2018-07-31T10:29:12.443Z,7.60
2018-07-31T10:31:41.399Z,6.10
2018-07-31T10:34:10.606Z,5.80
2018-07-31T10:36:39.954Z,6.10
2018-07-31T10:39:08.940Z,6.53
2018-07-31T10:41:38.207Z,6.20
2018-07-31T10:44:07.539Z,7.03
2018-07-31T10:46:36.899Z,6.83
2018-07-31T10:49:05.863Z,6.17
2018-07-31T10:51:35.094Z,5.67
2018-07-31T10:54:04.461Z,6.40
2018-07-31T10:56:33.752Z,6.23
2018-07-31T10:59:03.079Z,6.43
2018-07-31T11:01:32.395Z,7.20
2018-07-31T11:04:02.038Z,6.83
2018-07-31T11:06:31.342Z,5.93
2018-07-31T11:09:00.665Z,5.93
2018-07-31T11:11:30.017Z,6.37
2018-07-31T11:13:59.402Z,6.50
2018-07-31T11:16:28.352Z,6.47
2018-07-31T11:18:57.604Z,6.10
2018-07-31T11:21:26.936Z,5.77
2018-07-31T11:23:56.293Z,6.80
2018-07-31T11:26:25.586Z,6.10
2018-07-31T11:28:54.943Z,6.00
2018-07-31T11:31:23.912Z,5.90
2018-07-31T11:33:53.158Z,6.67
2018-07-31T11:36:22.464Z,6.23
2018-07-31T11:38:51.419Z,6.43
2018-07-31T11:41:20.631Z,5.93
2018-07-31T11:43:50.014Z,5.40
2018-07-31T11:46:19.380Z,5.70
2018-07-31T11:48:48.730Z,6.23
2018-07-31T11:51:18.056Z,7.07
2018-07-31T11:53:47.399Z,6.27
2018-07-31T11:56:16.724Z,6.30
2018-07-31T11:58:46.051Z,5.53
2018-07-31T12:01:15.407Z,6.37
2018-07-31T12:03:44.763Z,6.37
2018-07-31T12:06:14.088Z,6.77
2018-07-31T12:08:43.446Z,7.70
2018-07-31T12:11:12.853Z,6.50
2018-07-31T12:13:42.152Z,5.73
2018-07-31T12:16:11.484Z,6.83
2018-07-31T12:18:40.783Z,6.40
2018-07-31T12:21:10.879Z,6.30
2018-07-31T12:23:40.378Z,6.47
2018-07-31T12:26:09.339Z,7.27
2018-07-31T12:28:38.190Z,6.63
2018-07-31T12:31:07.936Z,6.33
2018-07-31T12:33:37.287Z,6.57
2018-07-31T12:36:08.679Z,5.50
2018-07-31T12:38:39.321Z,6.70
2018-07-31T12:41:09.177Z,6.87
2018-07-31T12:43:39.361Z,6.50
2018-07-31T12:46:09.042Z,6.90
2018-07-31T12:48:39.988Z,6.07
2018-07-31T12:51:10.467Z,6.30
2018-07-31T12:53:40.636Z,6.27
2018-07-31T12:56:11.111Z,6.50
2018-07-31T12:58:41.272Z,6.87
2018-07-31T13:01:11.229Z,6.40
2018-07-31T13:03:41.383Z,6.63
2018-07-31T13:06:11.304Z,6.20
2018-07-31T13:08:43.591Z,7.33
2018-07-31T13:11:15.046Z,6.97
2018-07-31T13:13:45.321Z,6.63
2018-07-31T13:16:15.533Z,6.50
2018-07-31T13:18:45.576Z,6.60
2018-07-31T13:21:15.029Z,6.97
2018-07-31T13:23:45.246Z,7.20
2018-07-31T13:26:14.656Z,5.93
2018-07-31T13:28:44.295Z,6.70
2018-07-31T13:31:13.592Z,6.00
2018-07-31T13:33:43.322Z,6.63
2018-07-31T13:36:13.049Z,5.70
2018-07-31T13:38:42.829Z,6.37
2018-07-31T13:41:12.555Z,6.13
2018-07-31T13:43:42.336Z,6.20
2018-07-31T13:46:11.504Z,6.37
2018-07-31T13:48:41.131Z,6.13
2018-07-31T13:51:10.793Z,6.53
2018-07-31T13:53:40.535Z,6.50
2018-07-31T13:56:10.117Z,6.83
2018-07-31T13:58:39.752Z,6.67
2018-07-31T14:01:09.130Z,6.20
2018-07-31T14:03:38.630Z,6.97
2018-07-31T14:06:08.185Z,6.70
2018-07-31T14:08:38.071Z,6.80
2018-07-31T14:11:07.440Z,6.23
2018-07-31T14:13:36.815Z,6.40
2018-07-31T14:16:06.256Z,6.23
2018-07-31T14:18:35.539Z,6.77
2018-07-31T14:21:04.756Z,6.40
2018-07-31T14:23:35.015Z,7.07
2018-07-31T14:26:04.355Z,6.50
2018-07-31T14:28:33.651Z,7.00
2018-07-31T14:31:02.977Z,6.70
2018-07-31T14:33:31.952Z,6.73
2018-07-31T14:36:01.233Z,6.90
2018-07-31T14:38:30.528Z,6.27
2018-07-31T14:40:59.901Z,6.30
2018-07-31T14:43:29.210Z,6.60
2018-07-31T14:45:58.537Z,6.50
2018-07-31T14:48:28.093Z,6.43
2018-07-31T14:50:57.497Z,5.60
2018-07-31T14:53:26.828Z,6.43
2018-07-31T14:55:56.379Z,7.30
2018-07-31T14:58:25.759Z,6.63
2018-07-31T15:00:55.016Z,6.20
2018-07-31T15:03:24.304Z,6.50
2018-07-31T15:05:53.639Z,6.60
2018-07-31T15:08:22.968Z,6.90
2018-07-31T15:10:52.011Z,6.70
2018-07-31T15:13:21.232Z,6.20
2018-07-31T15:15:50.741Z,7.00
2018-07-31T15:18:20.067Z,6.40
2018-07-31T15:20:49.464Z,6.20
2018-07-31T15:23:18.770Z,5.90
2018-07-31T15:25:49.156Z,6.50
2018-07-31T15:28:18.554Z,6.50
2018-07-31T15:30:48.248Z,6.20
2018-07-31T15:33:17.651Z,6.30
2018-07-31T15:35:46.680Z,6.07
2018-07-31T15:38:15.928Z,5.87
2018-07-31T15:40:44.942Z,5.10
2018-07-31T15:43:13.816Z,5.80
2018-07-31T15:45:43.061Z,5.80
2018-07-31T15:48:12.503Z,5.50
2018-07-31T15:50:41.872Z,6.03
2018-07-31T15:53:11.223Z,5.77
2018-07-31T15:55:40.580Z,6.10
2018-07-31T15:58:09.914Z,5.30
2018-07-31T16:00:38.873Z,5.20
2018-07-31T16:03:08.730Z,5.83
2018-07-31T16:05:37.686Z,5.00
2018-07-31T16:08:06.959Z,5.97
2018-07-31T16:10:35.894Z,5.13
2018-07-31T16:13:05.159Z,5.20
2018-07-31T16:15:34.671Z,5.00
2018-07-31T16:18:03.997Z,5.60
2018-07-31T16:20:33.318Z,5.00
2018-07-31T16:23:02.756Z,4.87
2018-07-31T16:25:32.024Z,5.67
2018-07-31T16:28:01.341Z,4.63
2018-07-31T16:30:30.705Z,4.93
2018-07-31T16:33:00.018Z,5.00
2018-07-31T16:35:28.983Z,6.03
2018-07-31T16:37:57.871Z,4.30
2018-07-31T16:40:27.208Z,4.70
2018-07-31T16:42:56.611Z,5.00
2018-07-31T16:45:26.098Z,5.27
2018-07-31T16:47:55.472Z,5.30
2018-07-31T16:50:24.808Z,5.40
2018-07-31T16:52:54.136Z,5.20
2018-07-31T16:55:23.494Z,4.87
2018-07-31T16:57:52.808Z,5.53
2018-07-31T17:00:21.790Z,5.60
2018-07-31T17:02:50.656Z,5.50
2018-07-31T17:05:19.903Z,4.93
2018-07-31T17:07:49.322Z,5.20
2018-07-31T17:10:18.618Z,5.30
2018-07-31T17:12:47.966Z,5.00
2018-07-31T17:15:17.616Z,5.63
2018-07-31T17:17:46.967Z,4.57
2018-07-31T17:20:16.309Z,4.80
2018-07-31T17:22:45.644Z,5.60
2018-07-31T17:25:15.001Z,5.03
2018-07-31T17:27:44.345Z,7.43
2018-07-31T17:30:13.707Z,5.07
2018-07-31T17:32:43.153Z,5.30
2018-07-31T17:35:12.476Z,5.50
2018-07-31T17:37:41.852Z,5.20
2018-07-31T17:40:11.173Z,5.03
2018-07-31T17:42:40.531Z,5.20
2018-07-31T17:45:09.941Z,5.60
2018-07-31T17:47:39.340Z,5.03
2018-07-31T17:50:08.704Z,5.47
2018-07-31T17:52:38.076Z,5.50
2018-07-31T17:55:07.066Z,5.40
2018-07-31T17:57:35.965Z,6.40
2018-07-31T18:00:05.627Z,5.00
2018-07-31T18:02:35.052Z,5.70
2018-07-31T18:05:04.383Z,6.00
2018-07-31T18:07:33.779Z,6.27
2018-07-31T18:10:03.113Z,6.43
2018-07-31T18:12:32.552Z,5.70
2018-07-31T18:15:01.898Z,6.07
2018-07-31T18:17:31.272Z,7.00
2018-07-31T18:20:00.609Z,6.27
2018-07-31T18:22:29.984Z,5.40
2018-07-31T18:24:59.299Z,6.53
2018-07-31T18:27:28.755Z,5.47
2018-07-31T18:29:58.746Z,5.93
2018-07-31T18:32:28.468Z,6.23
2018-07-31T18:34:58.371Z,5.90
2018-07-31T18:37:27.576Z,5.70
2018-07-31T18:39:56.750Z,5.73
2018-07-31T18:42:26.374Z,6.70
2018-07-31T18:44:56.141Z,7.80
2018-07-31T18:47:25.414Z,6.50
2018-07-31T18:49:54.966Z,6.33
2018-07-31T18:52:24.656Z,6.13
2018-07-31T18:54:54.154Z,6.40
2018-07-31T18:57:23.706Z,6.13
2018-07-31T18:59:53.418Z,6.40
2018-07-31T19:02:22.582Z,6.07
2018-07-31T19:04:51.707Z,6.20
2018-07-31T19:07:20.854Z,6.33
2018-07-31T19:09:50.453Z,5.90
2018-07-31T19:12:20.360Z,6.57
2018-07-31T19:14:50.181Z,5.80
2018-07-31T19:17:20.029Z,5.93
2018-07-31T19:19:49.763Z,6.30
2018-07-31T19:22:19.339Z,6.83
2018-07-31T19:24:48.946Z,6.70
2018-07-31T19:27:18.617Z,7.13
2018-07-31T19:29:48.285Z,6.53
2018-07-31T19:32:18.032Z,6.57
2018-07-31T19:34:47.395Z,7.23
2018-07-31T19:37:16.720Z,7.00
2018-07-31T19:39:46.375Z,7.43
2018-07-31T19:42:16.140Z,6.90
2018-07-31T19:44:45.746Z,6.60
2018-07-31T19:47:15.367Z,7.37
2018-07-31T19:49:45.466Z,6.97
2018-07-31T19:52:15.120Z,8.80
2018-07-31T19:54:44.435Z,7.53
2018-07-31T19:57:13.835Z,6.80
2018-07-31T19:59:43.122Z,11.97
2018-07-31T20:02:12.507Z,7.50
2018-07-31T20:04:41.920Z,6.97
2018-07-31T20:07:11.261Z,6.57
2018-07-31T20:09:41.177Z,7.10
2018-07-31T20:12:10.573Z,7.70
2018-07-31T20:14:39.903Z,8.70
2018-07-31T20:17:09.268Z,6.57
2018-07-31T20:19:38.233Z,7.27
2018-07-31T20:22:07.125Z,7.70
2018-07-31T20:24:35.999Z,8.83
2018-07-31T20:27:05.324Z,7.43
2018-07-31T20:29:34.668Z,6.57
2018-07-31T20:32:04.121Z,7.40
2018-07-31T20:34:33.906Z,8.33
2018-07-31T20:37:03.229Z,8.20
2018-07-31T20:39:32.545Z,9.23
2018-07-31T20:42:01.950Z,8.20
2018-07-31T20:44:31.304Z,7.63
2018-07-31T20:47:00.773Z,9.30
2018-07-31T20:49:30.193Z,8.20
2018-07-31T20:51:59.575Z,8.13
2018-07-31T20:54:29.009Z,6.70
2018-07-31T20:56:58.327Z,6.83
2018-07-31T20:59:28.132Z,6.57
2018-07-31T21:01:57.467Z,6.80
2018-07-31T21:04:26.958Z,6.73
2018-07-31T21:06:56.390Z,6.80
2018-07-31T21:09:25.827Z,7.07
2018-07-31T21:11:55.237Z,7.40
2018-07-31T21:14:24.601Z,7.57
2018-07-31T21:16:53.982Z,7.50
2018-07-31T21:19:23.466Z,7.80
2018-07-31T21:21:52.795Z,7.33
2018-07-31T21:24:22.564Z,6.80
2018-07-31T21:26:52.028Z,6.93
2018-07-31T21:29:21.381Z,7.10
2018-07-31T21:31:50.728Z,8.40
2018-07-31T21:34:20.533Z,7.00
2018-07-31T21:36:49.901Z,8.30
2018-07-31T21:39:19.275Z,8.03
2018-07-31T21:41:48.590Z,8.17
2018-07-31T21:44:17.923Z,7.57
2018-07-31T21:46:47.288Z,8.43
2018-07-31T21:49:16.299Z,9.30
2018-07-31T21:51:45.170Z,8.40
2018-07-31T21:54:14.020Z,7.93
2018-07-31T21:56:43.295Z,7.77
2018-07-31T21:59:12.688Z,7.50
2018-07-31T22:01:42.055Z,7.80
2018-07-31T22:04:11.022Z,7.50
2018-07-31T22:06:39.938Z,7.80
2018-07-31T22:09:09.511Z,8.10
2018-07-31T22:11:38.907Z,8.37
2018-07-31T22:14:08.345Z,8.97
2018-07-31T22:16:52.588Z,8.60
2018-07-31T22:19:21.910Z,8.20
2018-07-31T22:21:51.271Z,7.90
2018-07-31T22:24:20.584Z,7.47
2018-07-31T22:26:49.989Z,7.50
2018-07-31T22:29:19.316Z,7.10
2018-07-31T22:31:48.674Z,7.00
2018-07-31T22:34:18.018Z,7.23
2018-07-31T22:36:47.718Z,7.27
2018-07-31T22:39:17.031Z,7.20
2018-07-31T22:41:46.416Z,8.30
2018-07-31T22:44:16.116Z,8.07
2018-07-31T22:46:45.468Z,7.17
2018-07-31T22:49:14.805Z,7.40
2018-07-31T22:51:44.131Z,11.97
2018-07-31T22:54:13.467Z,8.70
2018-07-31T22:56:42.831Z,20.50
2018-07-31T22:59:12.186Z,9.87
2018-07-31T23:01:41.499Z,7.00
2018-07-31T23:04:10.843Z,7.30
2018-07-31T23:06:40.365Z,7.30
2018-07-31T23:09:11.065Z,7.23
2018-07-31T23:11:40.441Z,7.97
2018-07-31T23:14:09.914Z,7.07
2018-07-31T23:16:39.223Z,6.80
2018-07-31T23:19:08.571Z,7.70
2018-07-31T23:21:37.908Z,6.97
2018-07-31T23:24:07.256Z,7.47
2018-07-31T23:26:36.575Z,7.33
2018-07-31T23:29:05.966Z,7.67
2018-07-31T23:31:34.927Z,7.20
2018-07-31T23:34:04.141Z,7.10
2018-07-31T23:36:33.464Z,6.67
2018-07-31T23:39:03.175Z,7.03
2018-07-31T23:41:32.435Z,7.63
2018-07-31T23:44:02.131Z,7.77
2018-07-31T23:46:31.649Z,7.07
2018-07-31T23:49:01.023Z,8.23
2018-07-31T23:51:30.329Z,7.00
2018-07-31T23:53:59.652Z,7.73
2018-07-31T23:56:28.981Z,6.70
2018-07-31T23:58:58.358Z,8.17
